Time;durP1;ratioP1;P1;durP2;ratioP2;P2;SDS_P1;SDS_P2;PMS_P1;PMS_P2;Temp;Humidity;BMP_temperature;BMP_pressure;BME280_temperature;BME280_humidity;BME280_pressure;Samples;Min_cycle;Max_cycle;Signal;HPM_P1;HPM_P2
2022/08/05 00:01:14;;;;;;;5.10;0.77;;;;;;;28.38;32.90;100935.88;4893190;29;20056;-77
2022/08/05 00:03:44;;;;;;;1.70;0.63;;;;;;;28.30;32.67;100931.78;4891625;29;20565;-76
2022/08/05 00:06:12;;;;;;;3.05;0.73;;;;;;;28.22;34.35;100928.56;4886754;29;20053;-75
2022/08/05 00:08:41;;;;;;;2.22;0.70;;;;;;;28.10;33.54;100932.59;4885976;29;20049;-77
2022/08/05 00:11:10;;;;;;;2.35;0.63;;;;;;;27.96;33.72;100934.03;4880814;29;20116;-76
2022/08/05 00:13:40;;;;;;;5.28;0.70;;;;;;;27.75;34.83;100925.09;4884119;29;20049;-76
2022/08/05 00:16:10;;;;;;;0.65;0.50;;;;;;;27.48;34.23;100921.69;4893624;29;20763;-77
2022/08/05 00:18:40;;;;;;;3.10;0.70;;;;;;;27.31;34.50;100926.81;4885740;29;20120;-77
2022/08/05 00:21:09;;;;;;;0.80;0.60;;;;;;;27.19;35.20;100937.84;4889147;29;20061;-77
2022/08/05 00:23:37;;;;;;;4.65;0.75;;;;;;;27.21;35.68;100928.91;4883658;29;20061;-76
2022/08/05 00:26:07;;;;;;;1.02;0.65;;;;;;;27.25;35.37;100924.38;4888614;28;20060;-78
2022/08/05 00:28:36;;;;;;;1.00;0.60;;;;;;;27.24;35.62;100917.34;4891263;29;20475;-78
2022/08/05 00:31:06;;;;;;;3.60;0.55;;;;;;;27.27;35.40;100923.38;4881460;29;20057;-76
2022/08/05 00:33:35;;;;;;;1.35;0.47;;;;;;;27.34;35.48;100924.88;4889236;29;20112;-76
2022/08/05 00:36:05;;;;;;;2.95;0.63;;;;;;;27.31;35.18;100919.69;4887904;29;20057;-77
2022/08/05 00:38:34;;;;;;;0.63;0.40;;;;;;;27.25;35.68;100921.72;4885611;29;20488;-78
2022/08/05 00:41:05;;;;;;;5.47;0.85;;;;;;;27.19;35.75;100922.78;4891557;29;20057;-77
2022/08/05 00:43:33;;;;;;;3.22;0.60;;;;;;;27.18;36.38;100913.06;4888207;29;20059;-78
2022/08/05 00:46:02;;;;;;;1.77;0.60;;;;;;;27.16;36.55;100914.91;4889761;29;20494;-78
2022/08/05 00:48:30;;;;;;;0.70;0.50;;;;;;;27.02;37.39;100914.56;4893896;29;20056;-77
2022/08/05 00:50:59;;;;;;;1.23;0.60;;;;;;;26.95;36.79;100909.47;4890511;29;20059;-81
2022/08/05 00:53:29;;;;;;;1.30;0.50;;;;;;;26.98;36.75;100910.28;4887755;29;20052;-80
2022/08/05 00:55:58;;;;;;;1.23;0.50;;;;;;;27.02;35.94;100907.44;4890365;29;20045;-79
2022/08/05 00:58:26;;;;;;;1.85;1.50;;;;;;;27.06;35.61;100910.88;4891195;29;20052;-80
2022/08/05 01:00:55;;;;;;;1.60;0.50;;;;;;;27.11;35.99;100911.56;4891381;29;20052;-78
2022/08/05 01:03:24;;;;;;;1.10;0.52;;;;;;;27.16;35.74;100912.25;4890996;29;20049;-77
2022/08/05 01:05:53;;;;;;;0.88;0.45;;;;;;;27.11;35.10;100899.16;4890902;29;20325;-77
2022/08/05 01:08:22;;;;;;;0.50;0.40;;;;;;;27.21;35.97;100907.66;4885858;29;20052;-78
2022/08/05 01:10:55;;;;;;;1.90;0.55;;;;;;;27.25;35.73;100911.94;4891375;29;20499;-77
2022/08/05 01:13:32;;;;;;;1.30;0.57;;;;;;;27.24;35.10;100896.94;4890669;29;20066;-77
2022/08/05 01:16:05;;;;;;;167.65;10.70;;;;;;;27.25;35.80;100896.00;4887034;29;20048;-76
2022/08/05 01:18:39;;;;;;;0.38;0.30;;;;;;;27.14;35.23;100892.84;4891661;29;20109;-78
2022/08/05 01:21:18;;;;;;;1.25;0.50;;;;;;;27.06;35.20;100889.63;4892588;29;20092;-78
2022/08/05 01:24:02;;;;;;;2.30;0.50;;;;;;;26.98;35.67;100876.63;4890705;29;20049;-77
2022/08/05 01:26:49;;;;;;;1.95;0.60;;;;;;;26.91;35.17;100883.94;4887532;29;20051;-76
2022/08/05 01:29:25;;;;;;;0.60;0.40;;;;;;;26.74;35.56;100868.63;4884544;29;20543;-76
2022/08/05 01:31:57;;;;;;;0.93;0.57;;;;;;;26.60;36.37;100870.91;4890656;29;20055;-79
2022/08/05 01:34:27;;;;;;;;;;;;;;;26.52;36.46;100865.81;4886262;29;20061;-80
2022/08/05 01:37:01;;;;;;;0.50;0.50;;;;;;;26.46;35.55;100863.41;4886301;29;19979;-79
2022/08/05 01:39:32;;;;;;;0.60;0.40;;;;;;;26.42;35.85;100861.78;4890587;29;20056;-82
2022/08/05 01:42:02;;;;;;;0.50;0.40;;;;;;;26.31;35.38;100866.59;4889318;29;20256;-81
2022/08/05 01:44:34;;;;;;;1.60;0.40;;;;;;;26.10;36.27;100866.38;4886812;29;20053;-78
2022/08/05 01:47:03;;;;;;;0.80;0.40;;;;;;;26.01;37.02;100872.00;4887104;29;20159;-79
2022/08/05 01:49:33;;;;;;;3.30;0.60;;;;;;;25.99;36.77;100871.16;4888739;29;20053;-81
2022/08/05 01:52:03;;;;;;;0.55;0.40;;;;;;;25.96;37.12;100865.13;4890198;29;20060;-81
2022/08/05 01:54:40;;;;;;;1.85;0.60;;;;;;;25.80;36.33;100870.03;4891550;29;20065;-78
2022/08/05 01:57:10;;;;;;;3.35;0.40;;;;;;;25.71;36.15;100866.72;4882423;29;20118;-82
2022/08/05 01:59:42;;;;;;;1.95;0.50;;;;;;;25.63;36.06;100868.78;4891065;29;20060;-80
2022/08/05 02:02:12;;;;;;;0.95;0.50;;;;;;;25.60;36.03;100874.16;4888100;29;20411;-80
2022/08/05 02:04:46;;;;;;;0.98;0.60;;;;;;;25.55;36.52;100876.06;4885915;29;20056;-82
2022/08/05 02:07:15;;;;;;;1.67;0.50;;;;;;;25.52;36.51;100878.84;4887970;29;20049;-81
2022/08/05 02:09:44;;;;;;;1.25;0.40;;;;;;;25.50;36.10;100875.34;4885159;29;20057;-81
2022/08/05 02:12:18;;;;;;;1.75;0.50;;;;;;;25.48;36.54;100874.53;4887261;29;20120;-84
2022/08/05 02:14:54;;;;;;;0.50;0.40;;;;;;;25.42;36.47;100877.34;4890649;29;20059;-82
2022/08/05 02:17:30;;;;;;;0.90;0.50;;;;;;;25.34;36.81;100866.16;4882269;29;20570;-85
2022/08/05 02:20:03;;;;;;;1.13;0.50;;;;;;;25.36;36.71;100874.88;4888508;29;20049;-85
2022/08/05 02:22:37;;;;;;;1.33;0.47;;;;;;;25.33;36.45;100877.63;4892595;29;20060;-83
2022/08/05 02:25:12;;;;;;;1.02;0.40;;;;;;;25.25;36.66;100873.44;4896648;29;20063;-79
2022/08/05 02:27:42;;;;;;;0.70;0.50;;;;;;;25.17;35.57;100871.88;4886699;29;20502;-79
2022/08/05 02:30:14;;;;;;;1.45;0.60;;;;;;;25.13;36.09;100876.44;4893046;29;20053;-79
2022/08/05 02:32:44;;;;;;;0.73;0.30;;;;;;;25.13;36.22;100878.19;4888009;29;20455;-79
2022/08/05 02:35:16;;;;;;;2.00;0.40;;;;;;;25.09;36.44;100869.47;4890453;29;20052;-80
2022/08/05 02:37:45;;;;;;;;;;;;;;;25.00;36.39;100873.25;4891357;29;20053;-82
2022/08/05 02:40:15;;;;;;;0.65;0.40;;;;;;;24.88;36.30;100874.47;4894916;29;20325;-80
2022/08/05 02:42:45;;;;;;;0.77;0.30;;;;;;;24.71;36.75;100863.47;4890026;29;20064;-79
2022/08/05 02:45:17;;;;;;;0.98;0.50;;;;;;;24.68;37.40;100876.78;4890392;29;20064;-81
2022/08/05 02:47:47;;;;;;;1.48;0.50;;;;;;;24.60;37.00;100884.06;4892686;29;20055;-81
2022/08/05 02:50:16;;;;;;;1.27;0.52;;;;;;;24.53;37.51;100890.41;4894945;29;20053;-80
2022/08/05 02:52:46;;;;;;;0.95;0.50;;;;;;;24.45;38.40;100886.16;4894016;29;20048;-78
2022/08/05 02:55:16;;;;;;;1.13;0.55;;;;;;;24.38;39.09;100889.88;4892720;29;20068;-80
2022/08/05 02:57:46;;;;;;;2.08;0.43;;;;;;;24.32;39.51;100892.69;4900096;29;20044;-82
2022/08/05 03:00:18;;;;;;;0.95;0.40;;;;;;;24.23;39.58;100895.56;4912429;29;20055;-82
2022/08/05 03:02:49;;;;;;;2.65;0.50;;;;;;;24.13;39.75;100897.56;4904019;29;20162;-82
2022/08/05 03:05:19;;;;;;;0.93;0.40;;;;;;;24.08;40.22;100895.94;4897747;29;20052;-81
2022/08/05 03:07:47;;;;;;;1.95;0.50;;;;;;;24.02;40.51;100897.81;4877646;29;20117;-80
2022/08/05 03:10:17;;;;;;;0.80;0.50;;;;;;;23.95;40.38;100896.22;4894831;29;20596;-81
2022/08/05 03:12:46;;;;;;;0.65;0.40;;;;;;;23.91;41.23;100905.13;4897186;29;20550;-81
2022/08/05 03:15:16;;;;;;;0.40;0.40;;;;;;;23.84;41.35;100914.09;4896798;29;20088;-78
2022/08/05 03:17:45;;;;;;;1.15;0.50;;;;;;;23.79;42.06;100916.00;4892678;29;20056;-78
2022/08/05 03:20:13;;;;;;;0.85;0.50;;;;;;;23.70;41.92;100924.94;4894441;29;20454;-78
2022/08/05 03:22:42;;;;;;;1.50;0.50;;;;;;;23.58;41.82;100920.81;4887730;29;20647;-80
2022/08/05 03:25:12;;;;;;;1.52;0.50;;;;;;;23.51;42.40;100928.91;4883765;28;20113;-79
2022/08/05 03:27:40;;;;;;;0.50;0.50;;;;;;;23.45;42.25;100932.53;4872651;29;20053;-79
2022/08/05 03:30:10;;;;;;;1.17;0.40;;;;;;;23.40;42.89;100935.28;4870170;29;20041;-81
2022/08/05 03:32:41;;;;;;;1.77;0.50;;;;;;;23.36;42.68;100933.59;4875966;29;20061;-79
2022/08/05 03:35:10;;;;;;;1.88;0.50;;;;;;;23.31;42.50;100934.59;4886829;29;20112;-81
2022/08/05 03:37:39;;;;;;;3.10;0.85;;;;;;;23.25;42.20;100940.00;4873354;29;20138;-79
2022/08/05 03:40:09;;;;;;;0.75;0.60;;;;;;;23.15;42.03;100945.44;4877680;29;20049;-80
2022/08/05 03:42:38;;;;;;;2.38;0.40;;;;;;;23.08;42.89;100942.97;4876973;29;20174;-82
2022/08/05 03:45:08;;;;;;;0.98;0.40;;;;;;;23.01;44.41;100950.13;4873424;29;20044;-79
2022/08/05 03:47:37;;;;;;;2.25;0.77;;;;;;;22.93;44.82;100946.72;4880271;29;20112;-77
2022/08/05 03:50:08;;;;;;;1.20;0.75;;;;;;;22.85;42.68;100943.38;4875847;29;20045;-79
2022/08/05 03:52:43;;;;;;;2.72;0.50;;;;;;;22.78;43.12;100951.38;4874015;29;20057;-80
2022/08/05 03:55:16;;;;;;;1.13;0.50;;;;;;;22.74;42.55;100947.06;4870838;29;20045;-81
2022/08/05 03:57:46;;;;;;;0.68;0.40;;;;;;;22.68;42.08;100944.56;4877235;29;20499;-79
2022/08/05 04:00:16;;;;;;;2.25;0.63;;;;;;;22.62;42.45;100936.72;4873920;29;20053;-81
2022/08/05 04:02:47;;;;;;;3.33;0.57;;;;;;;22.46;42.77;100933.50;4876712;29;20499;-81
2022/08/05 04:05:18;;;;;;;2.25;0.57;;;;;;;22.46;42.64;100948.44;4878412;29;20055;-79
2022/08/05 04:07:48;;;;;;;1.30;0.60;;;;;;;22.40;42.96;100946.75;4871354;29;20057;-80
2022/08/05 04:10:19;;;;;;;1.20;0.52;;;;;;;22.34;43.30;100950.38;4869813;29;20135;-78
2022/08/05 04:12:48;;;;;;;0.50;0.30;;;;;;;22.30;43.37;100947.81;4872403;29;20538;-77
2022/08/05 04:15:16;;;;;;;0.45;0.35;;;;;;;22.24;44.10;100953.19;4876815;29;20060;-77
2022/08/05 04:17:45;;;;;;;2.13;0.50;;;;;;;22.17;43.70;100957.63;4876206;29;20088;-77
2022/08/05 04:20:20;;;;;;;1.58;0.50;;;;;;;22.07;43.91;100956.91;4873260;29;20125;-79
2022/08/05 04:22:49;;;;;;;2.17;0.40;;;;;;;21.98;43.97;100964.09;4867556;29;20057;-76
2022/08/05 04:25:18;;;;;;;2.15;0.40;;;;;;;21.83;44.41;100968.69;4885015;29;20056;-77
2022/08/05 04:27:46;;;;;;;1.05;0.60;;;;;;;21.76;45.31;100967.00;4887831;29;20068;-79
2022/08/05 04:30:15;;;;;;;0.40;0.40;;;;;;;21.69;44.68;100965.34;4891077;29;20061;-76
2022/08/05 04:32:43;;;;;;;0.65;0.40;;;;;;;21.64;45.10;100977.72;4890083;29;20132;-81
2022/08/05 04:35:12;;;;;;;0.63;0.40;;;;;;;21.58;44.45;100973.41;4890315;29;20100;-80
2022/08/05 04:37:42;;;;;;;2.67;0.70;;;;;;;21.53;45.12;100981.34;4892481;29;20503;-79
2022/08/05 04:40:12;;;;;;;3.50;0.52;;;;;;;21.47;44.24;100985.81;4889711;29;20049;-77
2022/08/05 04:42:40;;;;;;;1.42;0.60;;;;;;;21.37;45.24;100987.63;4891802;29;21245;-77
2022/08/05 04:45:10;;;;;;;1.50;0.40;;;;;;;21.28;45.01;100988.63;4891841;29;20384;-80
2022/08/05 04:47:39;;;;;;;3.22;0.50;;;;;;;21.23;45.58;100986.94;4892826;29;20052;-80
2022/08/05 04:50:08;;;;;;;1.27;0.50;;;;;;;21.13;45.18;100989.66;4888172;29;20100;-82
2022/08/05 04:52:36;;;;;;;2.40;0.60;;;;;;;21.10;45.35;100986.19;4885854;29;20056;-80
2022/08/05 04:55:07;;;;;;;2.50;0.40;;;;;;;21.05;45.63;100988.88;4890101;29;20116;-80
2022/08/05 04:57:36;;;;;;;1.65;0.43;;;;;;;20.97;45.84;100990.69;4893775;29;20112;-78
2022/08/05 05:00:05;;;;;;;0.95;0.50;;;;;;;20.87;46.44;100994.31;4893831;29;20058;-77
2022/08/05 05:02:34;;;;;;;0.77;0.40;;;;;;;20.78;46.41;100995.28;4890653;29;20084;-79
2022/08/05 05:05:03;;;;;;;0.55;0.50;;;;;;;20.71;46.64;100994.44;4894061;29;20113;-78
2022/08/05 05:07:31;;;;;;;1.35;0.50;;;;;;;20.67;46.90;100997.13;4892025;29;20049;-80
2022/08/05 05:10:03;;;;;;;1.45;0.50;;;;;;;20.56;46.81;100991.94;4894682;29;20044;-78
2022/08/05 05:12:33;;;;;;;1.13;0.50;;;;;;;20.49;46.87;100990.22;4888591;29;20104;-79
2022/08/05 05:15:01;;;;;;;0.77;0.40;;;;;;;20.41;47.12;100995.53;4900287;29;20044;-80
2022/08/05 05:17:36;;;;;;;0.90;0.47;;;;;;;20.36;47.51;100992.03;4888021;29;20499;-81
2022/08/05 05:20:06;;;;;;;2.35;0.40;;;;;;;20.30;47.79;100992.97;4893030;29;20056;-78
2022/08/05 05:22:35;;;;;;;0.40;0.40;;;;;;;20.26;47.96;100987.75;4886788;29;20507;-77
2022/08/05 05:25:04;;;;;;;1.35;0.60;;;;;;;20.18;48.25;100990.44;4890210;28;20045;-78
2022/08/05 05:27:35;;;;;;;0.90;0.45;;;;;;;20.13;49.45;100994.81;4872103;29;20046;-78
2022/08/05 05:30:04;;;;;;;2.28;1.05;;;;;;;20.04;49.22;100997.50;4871900;29;20491;-77
2022/08/05 05:32:33;;;;;;;0.50;0.43;;;;;;;19.98;48.97;101008.94;4871896;29;20053;-81
2022/08/05 05:35:01;;;;;;;0.55;0.30;;;;;;;19.92;49.09;101002.84;4869692;29;20049;-78
2022/08/05 05:37:30;;;;;;;0.40;0.40;;;;;;;19.85;49.45;101005.47;4875276;29;20058;-80
2022/08/05 05:39:58;;;;;;;1.25;0.45;;;;;;;19.78;49.48;101009.03;4864530;29;20050;-77
2022/08/05 05:42:27;;;;;;;2.70;0.30;;;;;;;19.77;49.38;101017.78;4865933;29;20545;-79
2022/08/05 05:44:57;;;;;;;1.92;0.50;;;;;;;19.72;51.30;101019.53;4873554;29;20048;-78
2022/08/05 05:47:25;;;;;;;1.38;0.40;;;;;;;19.65;50.75;101023.94;4875567;29;20388;-79
2022/08/05 05:49:55;;;;;;;1.13;0.40;;;;;;;19.58;50.42;101016.06;4875537;29;20363;-79
2022/08/05 05:52:25;;;;;;;0.85;0.50;;;;;;;19.54;50.81;101019.56;4873385;29;20131;-79
2022/08/05 05:54:54;;;;;;;0.90;0.60;;;;;;;19.52;50.98;101029.22;4867589;29;20049;-77
2022/08/05 05:57:22;;;;;;;1.02;0.50;;;;;;;19.48;51.27;101017.00;4868935;29;20461;-78
2022/08/05 05:59:51;;;;;;;0.50;0.50;;;;;;;19.41;51.18;101019.63;4869436;29;20093;-78
2022/08/05 06:02:21;;;;;;;1.38;0.50;;;;;;;19.35;51.51;101022.25;4868602;29;20057;-79
2022/08/05 06:05:04;;;;;;;1.27;0.60;;;;;;;19.27;51.62;101016.16;4865813;29;20046;-78
2022/08/05 06:07:32;;;;;;;1.38;0.50;;;;;;;19.22;51.75;101007.44;4869948;29;20049;-77
2022/08/05 06:10:01;;;;;;;0.82;0.57;;;;;;;19.14;51.98;101019.69;4869125;29;20445;-80
2022/08/05 06:12:29;;;;;;;1.35;0.65;;;;;;;19.10;52.46;101020.56;4872751;29;20097;-79
2022/08/05 06:14:58;;;;;;;2.53;0.40;;;;;;;19.03;52.09;101020.59;4873777;29;20097;-78
2022/08/05 06:17:28;;;;;;;2.00;0.60;;;;;;;18.99;52.86;101020.59;4875440;29;20053;-78
2022/08/05 06:19:56;;;;;;;1.70;0.50;;;;;;;18.95;52.76;101019.69;4873243;29;20117;-77
2022/08/05 06:22:27;;;;;;;3.00;0.63;;;;;;;18.91;52.54;101022.31;4872270;29;20431;-78
2022/08/05 06:24:55;;;;;;;0.93;0.50;;;;;;;18.87;52.46;101021.44;4879476;28;20571;-79
2022/08/05 06:27:24;;;;;;;1.48;0.70;;;;;;;18.82;53.00;101028.44;4889201;29;20052;-77
2022/08/05 06:29:52;;;;;;;1.65;0.57;;;;;;;18.76;53.03;101031.91;4891252;29;20117;-79
2022/08/05 06:32:21;;;;;;;1.20;0.50;;;;;;;18.74;53.32;101031.03;4884706;29;20053;-79
2022/08/05 06:34:52;;;;;;;2.00;0.50;;;;;;;18.71;53.53;101024.91;4878390;29;20053;-78
2022/08/05 06:37:20;;;;;;;2.88;0.80;;;;;;;18.67;53.81;101028.41;4885807;29;20053;-78
2022/08/05 06:39:49;;;;;;;0.90;0.50;;;;;;;18.64;53.28;101031.91;4888951;29;20641;-79
2022/08/05 06:42:17;;;;;;;1.38;0.60;;;;;;;18.59;54.00;101033.66;4887551;29;20064;-77
2022/08/05 06:44:46;;;;;;;1.15;0.68;;;;;;;18.57;54.13;101038.88;4890148;29;20060;-77
2022/08/05 06:47:14;;;;;;;1.60;0.40;;;;;;;18.56;53.46;101033.66;4888795;29;20960;-78
2022/08/05 06:49:43;;;;;;;1.15;0.60;;;;;;;18.50;53.84;101033.63;4889252;29;20052;-78
2022/08/05 06:52:13;;;;;;;2.55;0.47;;;;;;;18.47;54.29;101036.25;4888581;29;20071;-78
2022/08/05 06:54:41;;;;;;;2.03;0.52;;;;;;;18.45;53.86;101035.38;4887487;29;20052;-77
2022/08/05 06:57:13;;;;;;;2.72;0.60;;;;;;;18.43;54.67;101030.13;4889078;29;20048;-78
2022/08/05 06:59:41;;;;;;;1.88;0.57;;;;;;;18.39;54.79;101033.59;4888447;29;20570;-78
2022/08/05 07:02:11;;;;;;;1.10;0.60;;;;;;;18.38;54.18;101032.75;4891839;29;20056;-78
2022/08/05 07:04:39;;;;;;;0.50;0.50;;;;;;;18.36;54.52;101031.00;4887125;29;20044;-76
2022/08/05 07:07:08;;;;;;;1.05;0.63;;;;;;;18.34;54.58;101040.59;4889030;29;20654;-78
2022/08/05 07:09:38;;;;;;;3.08;0.50;;;;;;;18.32;54.39;101031.84;4892591;29;20067;-78
2022/08/05 07:12:07;;;;;;;1.00;0.55;;;;;;;18.30;55.04;101029.25;4894941;29;20060;-78
2022/08/05 07:17:21;;;;;;;0.95;0.57;;;;;;;18.27;55.10;101034.47;4885791;29;20470;-78
2022/08/05 07:19:51;;;;;;;1.38;0.60;;;;;;;18.25;55.20;101033.59;4891114;29;20403;-78
2022/08/05 07:22:21;;;;;;;2.03;0.77;;;;;;;18.23;55.25;101035.31;4894637;29;20060;-78
2022/08/05 07:24:51;;;;;;;1.30;0.40;;;;;;;18.19;55.88;101029.22;4889396;28;20487;-77
2022/08/05 07:27:19;;;;;;;1.20;0.60;;;;;;;18.17;57.24;101030.94;4892627;29;20812;-79
2022/08/05 07:29:48;;;;;;;0.80;0.57;;;;;;;18.12;58.49;101030.06;4891246;29;20055;-78
2022/08/05 07:32:17;;;;;;;1.83;0.60;;;;;;;18.08;57.12;101030.94;4891455;29;20060;-78
2022/08/05 07:34:45;;;;;;;1.00;0.60;;;;;;;18.05;58.20;101035.25;4896838;29;20049;-77
2022/08/05 07:37:15;;;;;;;1.25;0.57;;;;;;;17.97;57.59;101036.13;4893000;29;20052;-76
2022/08/05 07:39:44;;;;;;;1.15;0.70;;;;;;;17.92;57.58;101040.47;4895174;29;20049;-76
2022/08/05 07:42:14;;;;;;;0.80;0.57;;;;;;;17.90;57.70;101034.34;4889356;29;20045;-77
2022/08/05 07:44:43;;;;;;;1.10;0.70;;;;;;;17.88;57.26;101037.84;4887888;29;20049;-76
2022/08/05 07:47:11;;;;;;;1.25;0.60;;;;;;;17.84;57.57;101031.69;4894695;29;20559;-77
2022/08/05 07:49:40;;;;;;;3.22;0.60;;;;;;;17.77;57.56;101033.41;4893123;29;20057;-77
2022/08/05 07:52:08;;;;;;;1.50;0.60;;;;;;;17.73;57.26;101026.41;4888657;29;20060;-76
2022/08/05 07:54:37;;;;;;;2.03;0.60;;;;;;;17.70;58.39;101031.59;4891553;29;20404;-77
2022/08/05 07:57:07;;;;;;;2.03;0.82;;;;;;;17.65;58.07;101028.09;4891093;29;20063;-78
2022/08/05 07:59:37;;;;;;;0.60;0.57;;;;;;;17.58;58.49;101031.56;4894865;29;20558;-78
2022/08/05 08:02:07;;;;;;;1.88;0.52;;;;;;;17.48;58.73;101024.53;4888793;29;20056;-76
2022/08/05 08:04:35;;;;;;;2.60;1.15;;;;;;;17.44;59.77;101038.47;4890664;29;20136;-77
2022/08/05 08:07:04;;;;;;;1.95;0.60;;;;;;;17.33;59.52;101025.31;4894987;29;20492;-76
2022/08/05 08:09:32;;;;;;;1.63;0.63;;;;;;;17.29;59.32;101034.00;4894845;29;20055;-76
2022/08/05 08:12:01;;;;;;;1.02;0.68;;;;;;;17.24;59.25;101033.97;4888649;29;20535;-77
2022/08/05 08:14:29;;;;;;;1.17;0.55;;;;;;;17.19;60.21;101033.06;4891136;29;20048;-76
2022/08/05 08:17:00;;;;;;;0.93;0.60;;;;;;;17.14;60.89;101034.78;4891267;29;20465;-75
2022/08/05 08:19:28;;;;;;;0.98;0.63;;;;;;;17.12;61.21;101029.53;4888620;29;20634;-76
2022/08/05 08:21:57;;;;;;;2.00;0.88;;;;;;;17.13;62.17;101033.03;4888897;29;20088;-76
2022/08/05 08:24:25;;;;;;;2.05;0.80;;;;;;;17.11;61.99;101034.75;4888085;29;20049;-76
2022/08/05 08:26:54;;;;;;;1.98;0.68;;;;;;;17.11;62.08;101034.75;4886033;29;20056;-76
2022/08/05 08:29:22;;;;;;;1.00;0.60;;;;;;;17.10;60.10;101040.84;4886022;29;20060;-78
2022/08/05 08:31:51;;;;;;;1.98;0.70;;;;;;;17.10;60.04;101033.88;4895593;29;20598;-77
2022/08/05 08:34:23;;;;;;;0.90;0.50;;;;;;;17.06;59.75;101028.63;4895208;29;20112;-77
2022/08/05 08:36:52;;;;;;;2.05;0.70;;;;;;;17.13;60.00;101038.25;4885790;29;20053;-77
2022/08/05 08:39:22;;;;;;;2.75;0.68;;;;;;;17.13;59.16;101038.25;4898402;29;20664;-76
2022/08/05 08:41:53;;;;;;;0.90;0.60;;;;;;;17.04;59.89;101014.66;4898686;29;20425;-76
2022/08/05 08:44:24;;;;;;;2.97;0.60;;;;;;;17.13;60.06;101035.63;4890987;29;20064;-76
2022/08/05 08:46:52;;;;;;;1.10;0.70;;;;;;;17.10;59.95;101027.78;4886651;29;20059;-77
2022/08/05 08:49:25;;;;;;;0.93;0.68;;;;;;;17.09;60.19;101026.03;4890993;29;20696;-76
2022/08/05 08:52:02;;;;;;;0.98;0.70;;;;;;;17.07;60.85;101033.00;4891219;29;20490;-77
2022/08/05 08:54:31;;;;;;;1.42;0.68;;;;;;;17.05;60.20;101034.72;4888836;29;20055;-77
2022/08/05 08:57:01;;;;;;;1.77;0.73;;;;;;;17.03;60.57;101020.75;4892911;29;20052;-77
2022/08/05 08:59:29;;;;;;;1.63;0.47;;;;;;;16.94;61.03;101011.97;4891408;29;20066;-76
2022/08/05 09:01:58;;;;;;;1.85;0.85;;;;;;;17.02;61.11;101032.97;4893373;29;20100;-77
2022/08/05 09:04:29;;;;;;;1.08;0.57;;;;;;;17.01;60.50;101025.09;4888096;29;20616;-77
2022/08/05 09:06:59;;;;;;;2.50;0.70;;;;;;;16.99;60.89;101024.22;4890007;29;20057;-75
2022/08/05 09:09:28;;;;;;;2.40;0.65;;;;;;;16.92;60.95;101029.38;4890771;29;20108;-76
2022/08/05 09:11:57;;;;;;;2.47;0.63;;;;;;;16.90;60.53;101023.25;4889574;29;20059;-76
2022/08/05 09:14:25;;;;;;;1.90;0.90;;;;;;;16.88;60.69;101025.03;4888902;29;20484;-77
2022/08/05 09:16:54;;;;;;;0.60;0.50;;;;;;;16.87;61.18;101023.25;4888154;29;20601;-75
2022/08/05 09:19:22;;;;;;;0.90;0.57;;;;;;;16.85;61.43;101024.97;4888386;29;20104;-76
2022/08/05 09:21:53;;;;;;;1.95;0.70;;;;;;;16.83;62.30;101029.31;4888545;29;20522;-76
2022/08/05 09:24:21;;;;;;;1.73;0.80;;;;;;;16.82;61.34;101017.13;4881854;29;20056;-77
2022/08/05 09:26:52;;;;;;;1.35;0.68;;;;;;;16.81;61.53;101023.19;4894287;28;20060;-76
2022/08/05 09:29:21;;;;;;;1.23;0.63;;;;;;;16.79;62.34;101024.00;4891763;29;20060;-76
2022/08/05 09:32:03;;;;;;;1.48;0.73;;;;;;;16.75;62.08;101025.75;4892615;29;20053;-76
2022/08/05 09:34:48;;;;;;;1.17;0.65;;;;;;;16.72;62.59;101021.38;4885852;29;20071;-76
2022/08/05 09:37:23;;;;;;;0.98;0.68;;;;;;;16.62;62.49;101002.97;4890430;29;20059;-75
2022/08/05 09:39:51;;;;;;;1.20;0.65;;;;;;;16.64;63.67;101012.56;4891921;29;20052;-77
2022/08/05 09:42:21;;;;;;;1.65;0.60;;;;;;;16.62;63.53;101013.44;4892065;29;20056;-77
2022/08/05 09:44:53;;;;;;;1.52;0.60;;;;;;;16.55;63.81;101018.59;4889959;29;20108;-77
2022/08/05 09:47:22;;;;;;;0.98;0.65;;;;;;;16.53;63.99;101020.31;4889143;29;20147;-77
2022/08/05 09:49:52;;;;;;;2.53;0.88;;;;;;;16.48;63.66;101011.56;4889336;29;20087;-77
2022/08/05 09:52:25;;;;;;;2.53;0.75;;;;;;;16.46;64.37;101008.06;4892360;29;20480;-78
2022/08/05 09:54:55;;;;;;;2.25;0.70;;;;;;;16.45;64.40;101006.31;4892018;29;20048;-77
2022/08/05 09:57:32;;;;;;;1.02;0.70;;;;;;;16.35;63.80;100999.25;4890107;29;20809;-76
2022/08/05 10:00:02;;;;;;;1.48;0.77;;;;;;;16.40;64.66;101015.84;4887021;29;20052;-77
2022/08/05 10:02:35;;;;;;;1.23;0.63;;;;;;;16.35;65.39;101012.28;4891178;29;20133;-76
2022/08/05 10:05:10;;;;;;;1.10;0.77;;;;;;;16.28;65.73;101010.50;4886641;29;20052;-76
2022/08/05 10:07:52;;;;;;;1.27;0.68;;;;;;;16.26;65.52;101014.81;4888164;29;20049;-77
2022/08/05 10:10:22;;;;;;;1.40;0.50;;;;;;;16.20;65.72;101018.25;4885074;29;20049;-76
2022/08/05 10:12:53;;;;;;;0.85;0.65;;;;;;;16.19;65.32;101015.63;4888299;29;20057;-76
2022/08/05 10:15:25;;;;;;;0.85;0.57;;;;;;;16.16;65.98;101011.25;4889918;29;20495;-76
2022/08/05 10:18:09;;;;;;;1.70;0.70;;;;;;;16.12;66.66;101009.44;4885613;29;20049;-76
2022/08/05 10:20:41;;;;;;;2.28;0.70;;;;;;;16.08;66.96;101005.06;4892795;29;20052;-77
2022/08/05 10:23:14;;;;;;;1.85;0.80;;;;;;;16.05;66.94;101008.50;4893949;29;20577;-77
2022/08/05 10:25:43;;;;;;;1.00;0.60;;;;;;;16.05;66.86;101005.91;4888655;29;20148;-77
2022/08/05 10:28:11;;;;;;;1.98;0.60;;;;;;;16.03;66.98;101002.38;4887926;29;20148;-77
2022/08/05 10:30:40;;;;;;;2.80;0.82;;;;;;;15.98;67.05;100998.84;4888686;29;20052;-76
2022/08/05 10:33:09;;;;;;;3.50;0.90;;;;;;;15.95;67.79;100998.84;4889714;29;20064;-77
2022/08/05 10:35:38;;;;;;;1.33;0.77;;;;;;;15.89;67.16;100999.63;4885945;29;20452;-76
2022/08/05 10:38:08;;;;;;;3.85;0.60;;;;;;;15.87;66.86;101003.06;4888605;29;20104;-76
2022/08/05 10:40:42;;;;;;;2.35;0.82;;;;;;;15.84;67.00;101000.44;4892221;29;20117;-77
2022/08/05 10:43:26;;;;;;;3.13;0.73;;;;;;;15.82;67.50;100996.94;4891763;29;20060;-76
2022/08/05 10:45:59;;;;;;;0.65;0.63;;;;;;;15.78;68.42;101000.34;4896220;29;20041;-75
2022/08/05 10:48:32;;;;;;;0.88;0.55;;;;;;;15.75;68.46;100990.78;4903246;29;20397;-75
2022/08/05 10:51:03;;;;;;;1.20;0.60;;;;;;;15.75;67.92;101001.19;4893694;29;20052;-74
2022/08/05 10:53:37;;;;;;;2.00;0.82;;;;;;;15.74;67.75;100998.59;4888482;29;20487;-76
2022/08/05 10:56:09;;;;;;;0.80;0.50;;;;;;;15.70;68.15;101000.25;4885380;29;20048;-75
2022/08/05 10:58:48;;;;;;;1.58;0.60;;;;;;;15.64;68.08;100987.97;4896474;29;20096;-75
2022/08/05 11:01:17;;;;;;;2.25;0.98;;;;;;;15.64;68.36;100990.59;4895552;29;20095;-75
2022/08/05 11:04:16;;;;;;;0.73;0.50;;;;;;;15.60;67.84;100986.22;4895506;29;20451;-77
2022/08/05 11:07:07;;;;;;;2.45;0.80;;;;;;;15.59;68.27;100978.38;4821733;29;20046;-78
2022/08/05 11:09:43;;;;;;;1.63;0.77;;;;;;;15.55;68.40;100977.44;4893558;29;20044;-76
2022/08/05 11:12:45;;;;;;;2.63;0.63;;;;;;;15.52;68.89;100973.94;4894532;29;20490;-75
2022/08/05 11:15:22;;;;;;;0.68;0.52;;;;;;;15.47;67.46;100976.47;4890337;29;20061;-75
2022/08/05 11:17:51;;;;;;;3.78;0.80;;;;;;;15.42;68.03;100979.03;4891422;29;20063;-76
2022/08/05 11:20:39;;;;;;;0.93;0.63;;;;;;;15.32;69.84;100979.75;4887671;29;20108;-76
2022/08/05 11:23:30;;;;;;;1.42;0.60;;;;;;;15.25;70.13;100973.56;4890530;29;20041;-76
2022/08/05 11:26:06;;;;;;;1.65;0.77;;;;;;;15.21;70.59;100978.72;4891964;28;20059;-77
2022/08/05 11:28:47;;;;;;;3.28;0.40;;;;;;;15.15;70.66;100971.69;4896490;29;20059;-76
2022/08/05 11:31:33;;;;;;;1.00;0.70;;;;;;;15.16;70.65;100983.00;4890646;29;20053;-75
2022/08/05 11:34:04;;;;;;;1.17;0.60;;;;;;;15.12;70.54;100976.88;4891162;29;20605;-75
2022/08/05 11:36:50;;;;;;;1.60;1.02;;;;;;;15.02;71.78;100977.59;4892989;29;20044;-75
2022/08/05 11:39:48;;;;;;;1.40;0.77;;;;;;;14.91;73.22;100982.63;4893595;29;20052;-76
2022/08/05 11:42:23;;;;;;;0.93;0.60;;;;;;;14.82;73.46;100979.88;4889490;29;20135;-75
2022/08/05 11:45:03;;;;;;;1.85;0.63;;;;;;;14.72;73.29;100989.28;4889021;29;20061;-76
2022/08/05 11:47:32;;;;;;;0.90;0.70;;;;;;;14.63;74.13;100989.13;4893244;29;20597;-76